Portada
METAR-TAF:

METAR-TAF

Aeropuertos :

Aeropuerto de Yakutsk

Yakutsk, Rusia

latitud: 62-01N, longitud: 129-43E, altitud: 103 m

Observación

El informe se hizo hace 30 minutos, a las 07:30 UTC
Viento 6 kt del noroeste
Temperatura -21°C
Humedad 77%
Presión 1018 hPa
Visibilidad 10 km o más
sin nubes por debajo de 1500 m y sin presencia de cumulonimbus.

METAR: UEEE 180730Z 31003MPS CAVOK M21/M24 Q1018 R23L/420155 NOSIG RMK QFE755

Hora: 17:00 (08:00 UTC)

Pronóstico

El informe se hizo hace 3 horas y 0 minutos, a las 05:00 UTC
Pronóstico válido del 18 a las 06 UTC al 19 a las 12 UTC
Viento 6 kt del oeste-noroeste con ráfagas de 16 kt
Visibilidad 10 km o más
Nubes dispersas a una altura de 2000 ft
Cielo cubierto a una altura de 7000 ft
Temporalmente
del 18 a las 06 UTC al 18 a las 15 UTC
Visibilidad: 5000 m
poca nieve

TAF: UEEE 180500Z 1806/1912 29003G08MPS 9999 SCT020 OVC070 TEMPO 1806/1815 5000 -SN

Observaciones y pronósticos meteorológicos de más de 4000 aeropuertos (mensajes METAR y TAF).

Los puntos amarillos y rojos representan las estaciones disponibles.

Ponga el ratón en el punto deseado para ver el nombre de la estación.

Haga clic para ver las observaciones y los pronósticos meteorológicos.

Para cambiar el mapa : haga clic en los botones verdes con una cruz de color negro para hacer un zoom, en el botón verde con un guión para alejar o en las flechas verdes para mapas adyacentes.


METAR-TAF: